createdAt,value
2018-12-27T00:01:27.794Z,44.87
2018-12-27T00:04:02.022Z,44.41
2018-12-27T00:06:36.219Z,44.25
2018-12-27T00:09:10.248Z,44.21
2018-12-27T00:11:43.727Z,43.60
2018-12-27T00:14:17.544Z,43.43
2018-12-27T00:16:51.388Z,43.45
2018-12-27T00:19:25.040Z,43.97
2018-12-27T00:22:00.628Z,43.99
2018-12-27T00:24:34.070Z,43.78
2018-12-27T00:27:07.876Z,43.68
2018-12-27T00:29:42.129Z,43.61
2018-12-27T00:32:16.926Z,42.96
2018-12-27T00:34:51.145Z,42.59
2018-12-27T00:37:25.155Z,42.95
2018-12-27T00:39:58.865Z,43.32
2018-12-27T00:42:32.909Z,43.41
2018-12-27T00:45:07.131Z,42.65
2018-12-27T00:47:42.371Z,42.61
2018-12-27T00:50:17.166Z,43.35
2018-12-27T00:52:52.475Z,43.09
2018-12-27T00:55:30.070Z,43.04
2018-12-27T00:58:04.225Z,42.22
2018-12-27T01:00:38.055Z,42.11
2018-12-27T01:03:14.258Z,41.45
2018-12-27T01:05:47.463Z,41.37
2018-12-27T01:08:20.668Z,41.65
2018-12-27T01:10:53.914Z,41.87
2018-12-27T01:13:27.750Z,41.30
2018-12-27T01:16:02.318Z,41.72
2018-12-27T01:18:36.181Z,42.54
2018-12-27T01:21:10.283Z,41.59
2018-12-27T01:23:44.923Z,41.63
2018-12-27T01:26:18.958Z,41.63
2018-12-27T01:28:55.040Z,40.91
2018-12-27T01:34:19.877Z,40.70
2018-12-27T01:36:54.332Z,41.64
2018-12-27T01:39:31.048Z,42.51
2018-12-27T01:42:07.976Z,40.63
2018-12-27T01:44:47.695Z,40.86
2018-12-27T01:47:21.360Z,40.86
2018-12-27T01:49:54.638Z,40.67
2018-12-27T01:52:27.725Z,40.74
2018-12-27T01:55:00.969Z,39.66
2018-12-27T01:57:33.969Z,39.66
2018-12-27T02:00:07.369Z,39.61
2018-12-27T02:02:40.511Z,39.24
2018-12-27T02:05:14.117Z,39.22
2018-12-27T02:07:47.425Z,38.09
2018-12-27T02:10:20.677Z,38.70
2018-12-27T02:12:54.109Z,38.00
2018-12-27T02:15:27.544Z,38.50
2018-12-27T02:18:01.010Z,38.50
2018-12-27T02:20:34.431Z,39.15
2018-12-27T02:23:07.832Z,38.62
2018-12-27T02:25:41.094Z,39.17
2018-12-27T02:28:15.089Z,39.20
2018-12-27T02:30:49.573Z,38.41
2018-12-27T02:33:23.947Z,37.33
2018-12-27T02:35:58.117Z,37.33
2018-12-27T02:38:44.633Z,38.54
2018-12-27T02:41:18.950Z,38.31
2018-12-27T02:43:52.371Z,38.27
2018-12-27T02:46:25.673Z,37.34
2018-12-27T02:48:58.734Z,38.43
2018-12-27T02:51:32.249Z,36.80
2018-12-27T02:54:05.639Z,37.57
2018-12-27T02:56:43.966Z,37.44
2018-12-27T02:59:17.902Z,37.24
2018-12-27T03:01:51.179Z,37.24
2018-12-27T03:04:25.864Z,36.35
2018-12-27T03:06:59.030Z,36.69
2018-12-27T03:09:32.159Z,35.50
2018-12-27T03:12:05.721Z,35.50
2018-12-27T03:14:38.883Z,35.34
2018-12-27T03:17:12.388Z,34.02
2018-12-27T03:19:45.820Z,34.93
2018-12-27T03:22:18.914Z,34.93
2018-12-27T03:24:52.881Z,34.95
2018-12-27T03:27:26.164Z,34.95
2018-12-27T03:29:59.542Z,35.14
2018-12-27T03:32:36.949Z,34.00
2018-12-27T03:35:11.173Z,34.07
2018-12-27T03:37:44.426Z,35.96
2018-12-27T03:40:18.007Z,35.96
2018-12-27T03:42:51.331Z,34.96
2018-12-27T03:45:24.652Z,35.33
2018-12-27T03:47:58.121Z,33.73
2018-12-27T03:50:31.959Z,33.84
2018-12-27T03:53:05.251Z,32.72
2018-12-27T03:55:38.755Z,32.72
2018-12-27T03:58:12.182Z,34.11
2018-12-27T04:00:45.900Z,33.61
2018-12-27T04:03:19.624Z,33.66
2018-12-27T04:05:53.131Z,33.66
2018-12-27T04:08:26.435Z,33.38
2018-12-27T04:10:59.881Z,33.72
2018-12-27T04:13:32.859Z,33.52
2018-12-27T04:16:05.742Z,32.94
2018-12-27T04:18:38.949Z,33.71
2018-12-27T04:21:12.215Z,34.10
2018-12-27T04:23:46.842Z,34.52
2018-12-27T04:26:21.864Z,35.10
2018-12-27T04:28:55.899Z,34.42
2018-12-27T04:31:30.526Z,35.76
2018-12-27T04:34:09.485Z,35.10
2018-12-27T04:36:44.881Z,35.20
2018-12-27T04:39:18.101Z,34.18
2018-12-27T04:41:51.432Z,33.56
2018-12-27T04:44:25.271Z,33.92
2018-12-27T04:46:58.568Z,34.16
2018-12-27T04:49:31.920Z,33.87
2018-12-27T04:52:05.184Z,34.39
2018-12-27T04:54:38.195Z,34.91
2018-12-27T04:57:11.227Z,34.85
2018-12-27T04:59:44.423Z,33.56
2018-12-27T05:02:17.498Z,33.97
2018-12-27T05:04:50.732Z,34.77
2018-12-27T05:07:24.037Z,35.07
2018-12-27T05:09:56.814Z,35.54
2018-12-27T05:12:29.940Z,34.92
2018-12-27T05:15:03.183Z,35.32
2018-12-27T05:17:36.096Z,36.16
2018-12-27T05:20:10.472Z,35.70
2018-12-27T05:22:43.355Z,35.53
2018-12-27T05:25:16.258Z,36.94
2018-12-27T05:27:49.596Z,35.93
2018-12-27T05:30:23.996Z,35.48
2018-12-27T05:32:57.184Z,35.76
2018-12-27T05:35:30.507Z,35.41
2018-12-27T05:38:03.518Z,35.83
2018-12-27T05:40:36.794Z,35.28
2018-12-27T05:43:10.123Z,35.49
2018-12-27T05:45:43.420Z,35.60
2018-12-27T05:48:16.653Z,35.17
2018-12-27T05:50:49.698Z,36.20
2018-12-27T05:53:23.223Z,36.41
2018-12-27T05:55:56.229Z,36.23
2018-12-27T05:58:29.249Z,36.36
2018-12-27T06:01:02.641Z,36.17
2018-12-27T06:03:35.987Z,37.33
2018-12-27T06:06:09.555Z,37.33
2018-12-27T06:08:42.702Z,36.70
2018-12-27T06:11:16.425Z,36.75
2018-12-27T06:13:50.292Z,37.21
2018-12-27T06:16:23.448Z,37.31
2018-12-27T06:18:56.697Z,37.42
2018-12-27T06:21:29.698Z,36.66
2018-12-27T06:24:02.783Z,36.25
2018-12-27T06:26:35.850Z,36.97
2018-12-27T06:29:09.023Z,36.62
2018-12-27T06:31:41.990Z,36.34
2018-12-27T06:34:15.068Z,36.80
2018-12-27T06:36:48.361Z,37.34
2018-12-27T06:39:21.931Z,37.71
2018-12-27T06:41:55.201Z,37.71
2018-12-27T06:44:27.993Z,37.17
2018-12-27T06:47:01.078Z,36.17
2018-12-27T06:49:34.333Z,36.15
2018-12-27T06:52:07.635Z,36.62
2018-12-27T06:54:40.740Z,36.81
2018-12-27T06:57:13.861Z,37.15
2018-12-27T06:59:46.929Z,37.75
2018-12-27T07:02:20.089Z,35.84
2018-12-27T07:04:53.272Z,36.33
2018-12-27T07:07:26.331Z,35.89
2018-12-27T07:09:59.417Z,35.62
2018-12-27T07:12:32.751Z,37.30
2018-12-27T07:15:06.121Z,37.20
2018-12-27T07:17:39.159Z,37.04
2018-12-27T07:20:12.323Z,37.04
2018-12-27T07:22:46.717Z,38.11
2018-12-27T07:25:22.264Z,36.45
2018-12-27T07:27:55.362Z,37.03
2018-12-27T07:30:28.283Z,38.21
2018-12-27T07:33:01.308Z,37.76
2018-12-27T07:35:34.547Z,37.25
2018-12-27T07:38:07.956Z,37.89
2018-12-27T07:40:40.964Z,37.40
2018-12-27T07:43:13.884Z,37.55
2018-12-27T07:45:46.914Z,37.74
2018-12-27T07:48:20.032Z,37.68
2018-12-27T07:50:53.223Z,37.88
2018-12-27T07:53:26.231Z,37.96
2018-12-27T07:55:59.182Z,37.91
2018-12-27T07:58:32.049Z,37.43
2018-12-27T08:01:05.085Z,37.23
2018-12-27T08:03:38.333Z,38.07
2018-12-27T08:06:11.506Z,37.88
2018-12-27T08:08:44.491Z,38.00
2018-12-27T08:11:17.454Z,38.35
2018-12-27T08:13:50.741Z,37.85
2018-12-27T08:16:23.673Z,38.20
2018-12-27T08:18:56.803Z,37.78
2018-12-27T08:21:29.763Z,37.43
2018-12-27T08:24:02.904Z,37.92
2018-12-27T08:26:35.637Z,37.19
2018-12-27T08:29:08.831Z,37.60
2018-12-27T08:31:42.169Z,37.56
2018-12-27T08:34:15.368Z,37.34
2018-12-27T08:36:48.398Z,37.61
2018-12-27T08:39:21.775Z,38.53
2018-12-27T08:41:54.801Z,38.35
2018-12-27T08:44:28.099Z,38.00
2018-12-27T08:47:01.468Z,37.98
2018-12-27T08:49:34.549Z,37.99
2018-12-27T08:52:07.702Z,38.44
2018-12-27T08:54:40.781Z,38.58
2018-12-27T08:57:13.670Z,38.76
2018-12-27T08:59:46.882Z,38.83
2018-12-27T09:02:20.100Z,38.56
2018-12-27T09:04:53.295Z,39.32
2018-12-27T09:07:25.964Z,39.01
2018-12-27T09:09:59.585Z,39.10
2018-12-27T09:12:32.687Z,38.91
2018-12-27T09:15:05.814Z,38.94
2018-12-27T09:17:39.319Z,38.94
2018-12-27T09:20:12.669Z,39.57
2018-12-27T09:22:45.607Z,39.57
2018-12-27T09:25:18.247Z,39.34
2018-12-27T09:27:50.945Z,39.54
2018-12-27T09:30:23.914Z,38.74
2018-12-27T09:32:57.139Z,38.89
2018-12-27T09:35:30.289Z,39.15
2018-12-27T09:38:03.359Z,38.93
2018-12-27T09:40:36.521Z,38.63
2018-12-27T09:43:09.958Z,39.34
2018-12-27T09:45:43.263Z,38.98
2018-12-27T09:48:16.103Z,39.22
2018-12-27T09:50:49.067Z,38.97
2018-12-27T09:53:21.995Z,38.78
2018-12-27T09:55:54.889Z,38.56
2018-12-27T09:58:27.995Z,38.45
2018-12-27T10:01:01.796Z,38.69
2018-12-27T10:03:34.885Z,38.47
2018-12-27T10:06:07.974Z,38.18
2018-12-27T10:08:41.046Z,38.92
2018-12-27T10:11:14.149Z,39.45
2018-12-27T10:13:48.333Z,38.92
2018-12-27T10:16:21.312Z,39.59
2018-12-27T10:18:54.439Z,38.96
2018-12-27T10:21:27.547Z,38.96
2018-12-27T10:24:00.447Z,39.33
2018-12-27T10:26:33.267Z,38.35
2018-12-27T10:29:06.370Z,39.07
2018-12-27T10:31:39.558Z,39.07
2018-12-27T10:34:12.885Z,39.24
2018-12-27T10:36:46.173Z,39.24
2018-12-27T10:39:19.288Z,39.43
2018-12-27T10:41:53.468Z,39.37
2018-12-27T10:44:28.257Z,40.17
2018-12-27T10:47:01.134Z,40.17
2018-12-27T10:49:35.042Z,39.36
2018-12-27T10:52:08.906Z,39.36
2018-12-27T10:54:42.001Z,39.71
2018-12-27T10:57:15.287Z,39.71
2018-12-27T10:59:48.541Z,39.57
2018-12-27T11:02:21.870Z,39.11
2018-12-27T11:04:54.992Z,39.11
2018-12-27T11:07:27.786Z,39.73
2018-12-27T11:10:01.074Z,39.73
2018-12-27T11:12:34.089Z,39.25
2018-12-27T11:15:07.872Z,39.25
2018-12-27T11:17:41.369Z,40.44
2018-12-27T11:20:14.265Z,40.19
2018-12-27T11:22:47.195Z,40.19
2018-12-27T11:25:21.758Z,40.89
2018-12-27T11:27:54.590Z,40.21
2018-12-27T11:30:27.705Z,40.21
2018-12-27T11:33:00.706Z,39.76
2018-12-27T11:35:33.851Z,39.76
2018-12-27T11:38:07.186Z,39.71
2018-12-27T11:40:40.210Z,39.72
2018-12-27T11:43:13.242Z,39.72
2018-12-27T11:45:46.867Z,40.17
2018-12-27T11:48:20.188Z,40.17
2018-12-27T11:50:53.351Z,41.21
2018-12-27T11:53:26.435Z,40.66
2018-12-27T11:55:59.596Z,40.97
2018-12-27T11:58:32.662Z,40.50
2018-12-27T12:01:06.441Z,40.18
2018-12-27T12:03:39.627Z,40.18
2018-12-27T12:06:12.894Z,40.05
2018-12-27T12:08:45.986Z,39.95
2018-12-27T12:11:19.113Z,39.95
2018-12-27T12:13:52.100Z,40.75
2018-12-27T12:16:26.041Z,40.22
2018-12-27T12:18:59.192Z,40.20
2018-12-27T12:21:31.866Z,40.58
2018-12-27T12:24:05.267Z,40.43
2018-12-27T12:26:37.971Z,40.20
2018-12-27T12:29:12.164Z,40.14
2018-12-27T12:31:45.512Z,40.54
2018-12-27T12:34:18.960Z,40.42
2018-12-27T12:36:52.885Z,41.18
2018-12-27T12:39:25.800Z,41.31
2018-12-27T12:41:58.748Z,40.90
2018-12-27T12:44:32.091Z,40.91
2018-12-27T12:47:05.273Z,41.27
2018-12-27T12:49:38.266Z,41.38
2018-12-27T12:52:11.360Z,40.39
2018-12-27T12:54:44.525Z,40.39
2018-12-27T12:57:17.506Z,40.61
2018-12-27T12:59:56.852Z,40.61
2018-12-27T13:02:29.708Z,39.87
2018-12-27T13:05:02.925Z,40.25
2018-12-27T13:07:35.983Z,40.30
2018-12-27T13:10:09.171Z,40.30
2018-12-27T13:12:42.239Z,39.90
2018-12-27T13:15:15.563Z,40.50
2018-12-27T13:17:48.606Z,40.10
2018-12-27T13:20:21.769Z,39.34
2018-12-27T13:22:54.758Z,39.24
2018-12-27T13:25:28.122Z,39.16
2018-12-27T13:28:01.289Z,39.16
2018-12-27T13:30:34.622Z,40.20
2018-12-27T13:33:07.744Z,40.20
2018-12-27T13:35:40.970Z,40.45
2018-12-27T13:38:14.538Z,39.76
2018-12-27T13:40:48.011Z,40.67
2018-12-27T13:43:21.159Z,40.39
2018-12-27T13:45:54.305Z,40.39
2018-12-27T13:48:27.804Z,40.06
2018-12-27T13:51:00.844Z,40.06
2018-12-27T13:53:34.016Z,41.03
2018-12-27T13:56:07.205Z,41.03
2018-12-27T13:58:40.174Z,39.79
2018-12-27T14:01:13.437Z,39.70
2018-12-27T14:03:46.565Z,40.10
2018-12-27T14:06:19.575Z,39.80
2018-12-27T14:08:52.922Z,39.80
2018-12-27T14:11:26.115Z,40.56
2018-12-27T14:13:59.035Z,39.44
2018-12-27T14:16:32.635Z,39.44
2018-12-27T14:19:05.763Z,40.13
2018-12-27T14:21:39.113Z,39.97
2018-12-27T14:24:12.229Z,39.95
2018-12-27T14:26:45.188Z,40.04
2018-12-27T14:29:18.613Z,40.06
2018-12-27T14:31:51.724Z,39.91
2018-12-27T14:34:24.857Z,39.37
2018-12-27T14:36:57.729Z,39.95
2018-12-27T14:39:30.751Z,40.32
2018-12-27T14:42:03.882Z,40.03
2018-12-27T14:44:37.084Z,40.06
2018-12-27T14:47:10.274Z,39.82
2018-12-27T14:49:43.509Z,40.41
2018-12-27T14:52:16.402Z,40.34
2018-12-27T14:54:49.685Z,40.92
2018-12-27T14:57:23.579Z,40.66
2018-12-27T14:59:57.236Z,41.26
2018-12-27T15:02:30.206Z,41.26
2018-12-27T15:05:02.977Z,41.00
2018-12-27T15:07:35.768Z,40.77
2018-12-27T15:10:10.057Z,41.08
2018-12-27T15:12:43.332Z,40.66
2018-12-27T15:15:16.275Z,41.06
2018-12-27T15:17:49.252Z,41.34
2018-12-27T15:20:22.114Z,40.89
2018-12-27T15:22:54.859Z,41.56
2018-12-27T15:25:27.714Z,41.30
2018-12-27T15:28:00.349Z,41.12
2018-12-27T15:30:33.579Z,41.57
2018-12-27T15:33:06.916Z,41.54
2018-12-27T15:35:41.000Z,41.93
2018-12-27T15:38:14.387Z,42.20
2018-12-27T15:40:47.520Z,42.30
2018-12-27T15:43:20.812Z,41.98
2018-12-27T15:45:53.982Z,42.10
2018-12-27T15:48:27.372Z,42.29
2018-12-27T15:51:00.818Z,41.86
2018-12-27T15:53:33.790Z,42.14
2018-12-27T15:56:07.384Z,42.21
2018-12-27T15:58:40.587Z,42.18
2018-12-27T16:01:13.634Z,42.00
2018-12-27T16:03:47.819Z,42.01
2018-12-27T16:06:20.951Z,42.01
2018-12-27T16:08:54.304Z,42.44
2018-12-27T16:11:27.546Z,42.57
2018-12-27T16:14:00.820Z,42.50
2018-12-27T16:16:33.930Z,42.31
2018-12-27T16:19:06.937Z,43.17
2018-12-27T16:21:41.512Z,43.15
2018-12-27T16:24:14.630Z,42.90
2018-12-27T16:26:47.595Z,42.80
2018-12-27T16:29:20.337Z,43.35
2018-12-27T16:31:53.872Z,43.12
2018-12-27T16:34:27.078Z,42.91
2018-12-27T16:37:00.481Z,42.89
2018-12-27T16:39:34.236Z,43.29
2018-12-27T16:42:06.902Z,43.22
2018-12-27T16:44:39.850Z,43.17
2018-12-27T16:47:12.709Z,43.10
2018-12-27T16:49:45.774Z,43.13
2018-12-27T16:52:19.018Z,43.06
2018-12-27T16:54:52.763Z,43.02
2018-12-27T16:57:25.923Z,43.18
2018-12-27T16:59:59.199Z,42.93
2018-12-27T17:02:32.559Z,42.94
2018-12-27T17:05:05.974Z,43.22
2018-12-27T17:07:39.207Z,43.50
2018-12-27T17:10:12.175Z,43.63
2018-12-27T17:12:45.285Z,43.50
2018-12-27T17:15:18.090Z,43.87
2018-12-27T17:17:50.975Z,43.64
2018-12-27T17:20:24.056Z,43.85
2018-12-27T17:22:57.128Z,43.70
2018-12-27T17:25:30.210Z,43.57
2018-12-27T17:28:03.276Z,43.37
2018-12-27T17:30:36.340Z,43.89
2018-12-27T17:33:09.369Z,43.93
2018-12-27T17:35:42.170Z,43.79
2018-12-27T17:38:15.371Z,43.64
2018-12-27T17:40:48.177Z,43.71
2018-12-27T17:43:20.954Z,43.71
2018-12-27T17:45:54.395Z,43.28
2018-12-27T17:48:28.023Z,43.83
2018-12-27T17:51:01.287Z,43.33
2018-12-27T17:53:34.706Z,43.53
2018-12-27T17:56:08.524Z,43.44
2018-12-27T17:58:41.823Z,42.73
2018-12-27T18:01:14.836Z,42.44
2018-12-27T18:03:47.917Z,41.87
2018-12-27T18:06:20.991Z,42.50
2018-12-27T18:08:54.238Z,42.38
2018-12-27T18:11:27.517Z,41.63
2018-12-27T18:14:00.444Z,41.48
2018-12-27T18:16:33.376Z,42.26
2018-12-27T18:19:06.245Z,42.37
2018-12-27T18:21:39.208Z,42.85
2018-12-27T18:24:12.298Z,41.81
2018-12-27T18:26:45.172Z,41.81
2018-12-27T18:29:18.292Z,41.92
2018-12-27T18:31:51.345Z,41.13
2018-12-27T18:34:25.551Z,41.21
2018-12-27T18:36:59.313Z,41.17
2018-12-27T18:39:32.491Z,41.37
2018-12-27T18:42:05.537Z,40.93
2018-12-27T18:44:38.937Z,41.16
2018-12-27T18:47:12.253Z,41.64
2018-12-27T18:49:45.228Z,41.22
2018-12-27T18:52:21.634Z,41.34
2018-12-27T18:54:54.757Z,41.68
2018-12-27T18:57:28.501Z,41.55
2018-12-27T19:00:07.245Z,42.19
2018-12-27T19:02:42.026Z,41.97
2018-12-27T19:05:15.590Z,42.22
2018-12-27T19:07:48.997Z,41.99
2018-12-27T19:10:22.094Z,42.15
2018-12-27T19:13:14.981Z,42.75
2018-12-27T19:15:51.909Z,42.17
2018-12-27T19:18:27.095Z,42.16
2018-12-27T19:21:01.681Z,43.00
2018-12-27T19:23:34.826Z,42.79
2018-12-27T19:26:07.833Z,42.58
2018-12-27T19:28:41.416Z,42.58
2018-12-27T19:31:14.798Z,42.51
2018-12-27T19:33:47.721Z,42.51
2018-12-27T19:36:21.096Z,42.30
2018-12-27T19:39:14.097Z,43.21
2018-12-27T19:41:47.194Z,43.56
2018-12-27T19:44:20.103Z,43.70
2018-12-27T19:46:53.700Z,43.69
2018-12-27T19:49:27.405Z,43.89
2018-12-27T19:52:01.110Z,43.80
2018-12-27T19:54:34.143Z,44.19
2018-12-27T19:57:07.795Z,43.76
2018-12-27T19:59:42.783Z,43.79
2018-12-27T20:02:19.783Z,43.65
2018-12-27T20:04:54.793Z,43.62
2018-12-27T20:07:28.618Z,44.05
2018-12-27T20:10:06.138Z,44.05
2018-12-27T20:12:41.120Z,44.09
2018-12-27T20:15:16.981Z,43.63
2018-12-27T20:17:52.710Z,43.17
2018-12-27T20:20:27.307Z,43.86
2018-12-27T20:23:01.554Z,44.25
2018-12-27T20:25:36.630Z,43.97
2018-12-27T20:28:10.977Z,43.94
2018-12-27T20:30:45.707Z,44.31
2018-12-27T20:33:19.396Z,44.49
2018-12-27T20:35:53.018Z,44.71
2018-12-27T20:38:26.875Z,44.44
2018-12-27T20:41:00.218Z,44.59
2018-12-27T20:43:33.364Z,44.12
2018-12-27T20:46:14.505Z,45.04
2018-12-27T20:48:54.866Z,44.42
2018-12-27T20:51:28.973Z,44.35
2018-12-27T20:54:03.154Z,44.24
2018-12-27T20:56:37.236Z,44.24
2018-12-27T20:59:10.869Z,44.48
2018-12-27T21:01:45.320Z,44.41
2018-12-27T21:04:19.826Z,44.17
2018-12-27T21:06:53.796Z,44.43
2018-12-27T21:09:27.908Z,43.82
2018-12-27T21:12:03.023Z,44.13
2018-12-27T21:14:37.162Z,43.84
2018-12-27T21:17:11.622Z,44.33
2018-12-27T21:19:45.334Z,44.35
2018-12-27T21:22:18.416Z,44.47
2018-12-27T21:24:53.162Z,44.59
2018-12-27T21:27:26.726Z,43.93
2018-12-27T21:30:00.084Z,43.34
2018-12-27T21:32:33.446Z,43.99
2018-12-27T21:35:10.455Z,44.80
2018-12-27T21:37:44.299Z,44.12
2018-12-27T21:40:17.463Z,44.70
2018-12-27T21:42:51.693Z,44.70
2018-12-27T21:45:28.862Z,44.11
2018-12-27T21:48:03.545Z,44.16
2018-12-27T21:50:38.739Z,43.74
2018-12-27T21:53:12.831Z,43.98
2018-12-27T21:55:47.828Z,44.56
2018-12-27T21:58:21.881Z,44.56
2018-12-27T22:00:59.330Z,44.13
2018-12-27T22:03:33.456Z,44.15
2018-12-27T22:06:11.692Z,44.40
2018-12-27T22:08:46.023Z,45.00
2018-12-27T22:11:20.599Z,44.48
2018-12-27T22:13:57.829Z,44.41
2018-12-27T22:16:31.994Z,45.27
2018-12-27T22:19:06.142Z,45.27
2018-12-27T22:21:39.628Z,44.96
2018-12-27T22:24:12.699Z,44.95
2018-12-27T22:26:46.297Z,44.56
2018-12-27T22:29:24.100Z,44.99
2018-12-27T22:32:01.264Z,44.94
2018-12-27T22:34:35.807Z,45.08
2018-12-27T22:37:10.014Z,45.48
2018-12-27T22:39:45.467Z,45.38
2018-12-27T22:42:19.571Z,45.33
2018-12-27T22:44:53.733Z,46.40
2018-12-27T22:47:27.789Z,45.46
2018-12-27T22:50:05.099Z,45.56
2018-12-27T22:52:43.404Z,45.36
2018-12-27T22:55:18.582Z,44.97
2018-12-27T22:57:55.226Z,45.55
2018-12-27T23:00:30.081Z,45.72
2018-12-27T23:03:04.142Z,45.51
2018-12-27T23:05:37.616Z,45.47
2018-12-27T23:08:11.699Z,45.70
2018-12-27T23:10:45.567Z,45.72
2018-12-27T23:13:18.698Z,45.72
2018-12-27T23:15:52.512Z,45.74
2018-12-27T23:18:26.430Z,46.11
2018-12-27T23:21:03.225Z,45.74
2018-12-27T23:23:38.075Z,45.88
2018-12-27T23:26:12.251Z,45.98
2018-12-27T23:28:46.443Z,45.55
2018-12-27T23:31:24.041Z,45.61
2018-12-27T23:33:58.082Z,45.90
2018-12-27T23:36:32.798Z,45.80
2018-12-27T23:39:08.006Z,45.77
2018-12-27T23:41:42.848Z,45.47
2018-12-27T23:44:17.212Z,45.21
2018-12-27T23:46:51.604Z,45.32
2018-12-27T23:49:25.712Z,45.12
2018-12-27T23:51:59.927Z,45.59
2018-12-27T23:54:33.844Z,45.05
2018-12-27T23:57:07.312Z,44.53
2018-12-27T23:59:44.626Z,44.84
